Time;durP1;ratioP1;P1;durP2;ratioP2;P2;SDS_P1;SDS_P2;PMS_P1;PMS_P2;Temp;Humidity;BMP_temperature;BMP_pressure;BME280_temperature;BME280_humidity;BME280_pressure;Samples;Min_cycle;Max_cycle;Signal;HPM_P1;HPM_P2
2022/08/31 00:05:45;;;;;;;11.23;8.80;;;18.40;99.90;;;;;;5067969;28;20122;-73
2022/08/31 00:08:14;;;;;;;10.40;7.72;;;18.30;99.90;;;;;;5084490;28;20039;-73
2022/08/31 00:10:44;;;;;;;10.82;8.65;;;18.30;99.90;;;;;;5106543;27;20868;-74
2022/08/31 00:13:13;;;;;;;10.35;8.50;;;18.20;99.90;;;;;;5073637;28;20409;-73
2022/08/31 00:15:41;;;;;;;10.20;8.73;;;18.20;99.90;;;;;;5087660;28;20076;-73
2022/08/31 00:18:09;;;;;;;12.07;8.45;;;18.10;99.90;;;;;;5090671;28;20378;-73
2022/08/31 00:20:36;;;;;;;11.02;8.30;;;18.00;99.90;;;;;;5103074;28;20043;-74
2022/08/31 00:23:07;;;;;;;9.07;8.18;;;18.00;99.90;;;;;;5092009;28;20052;-74
2022/08/31 00:25:38;;;;;;;10.43;8.68;;;18.00;99.90;;;;;;5071797;28;20055;-74
2022/08/31 00:28:07;;;;;;;9.70;8.30;;;18.00;99.90;;;;;;5065601;28;20138;-73
2022/08/31 00:30:34;;;;;;;11.43;8.15;;;17.90;99.90;;;;;;5105585;28;20059;-73
2022/08/31 00:33:03;;;;;;;14.45;9.07;;;17.90;99.90;;;;;;5100191;28;20119;-74
2022/08/31 00:35:32;;;;;;;9.35;7.70;;;17.90;99.90;;;;;;5088904;28;20044;-73
2022/08/31 00:38:00;;;;;;;10.88;7.78;;;17.90;99.90;;;;;;5088638;28;20389;-73
2022/08/31 00:40:27;;;;;;;9.02;7.57;;;17.90;99.90;;;;;;5068601;28;20040;-73
2022/08/31 00:42:55;;;;;;;10.40;8.07;;;17.90;99.90;;;;;;5097511;28;20071;-73
2022/08/31 00:45:23;;;;;;;8.98;8.05;;;17.90;99.90;;;;;;5078514;28;20040;-73
2022/08/31 00:47:51;;;;;;;11.52;8.63;;;17.90;99.90;;;;;;5085467;28;20134;-73
2022/08/31 00:50:20;;;;;;;9.73;8.20;;;17.90;99.90;;;;;;5078043;28;20555;-74
2022/08/31 00:52:52;;;;;;;10.15;8.60;;;17.80;99.90;;;;;;5095809;28;20046;-73
2022/08/31 00:55:35;;;;;;;8.45;7.53;;;17.80;99.90;;;;;;5092761;27;20237;-72
2022/08/31 00:58:08;;;;;;;9.05;7.60;;;17.90;99.90;;;;;;5080865;28;20100;-72
2022/08/31 01:00:36;;;;;;;11.38;7.90;;;17.80;99.90;;;;;;5113906;27;20407;-73
2022/08/31 01:03:06;;;;;;;8.80;7.90;;;17.80;99.90;;;;;;5107299;27;20036;-72
2022/08/31 01:05:35;;;;;;;8.70;7.80;;;17.70;99.90;;;;;;5100527;27;20048;-72
2022/08/31 01:08:04;;;;;;;10.05;8.43;;;17.70;99.90;;;;;;5100573;28;20060;-73
2022/08/31 01:10:35;;;;;;;11.13;8.30;;;17.70;99.90;;;;;;5103053;28;20134;-73
2022/08/31 01:13:03;;;;;;;11.57;7.93;;;17.60;99.90;;;;;;5098378;28;20133;-73
2022/08/31 01:15:31;;;;;;;14.80;8.00;;;17.70;99.90;;;;;;5102962;28;20075;-73
2022/08/31 01:18:01;;;;;;;10.98;8.25;;;17.70;99.90;;;;;;5100974;28;20047;-74
2022/08/31 01:20:54;;;;;;;10.75;8.13;;;17.70;99.90;;;;;;5108371;27;20526;-74
2022/08/31 01:23:41;;;;;;;9.57;7.90;;;17.70;99.90;;;;;;5082890;28;20082;-73
2022/08/31 01:26:13;;;;;;;10.73;7.78;;;17.70;99.90;;;;;;5065576;28;20060;-74
2022/08/31 01:28:41;;;;;;;11.55;8.63;;;17.70;99.90;;;;;;5077972;28;20078;-73
2022/08/31 01:31:14;;;;;;;12.63;8.32;;;17.70;99.90;;;;;;5070143;28;20143;-73
2022/08/31 01:33:42;;;;;;;9.70;8.60;;;17.60;99.90;;;;;;5086747;28;20063;-74
2022/08/31 01:36:12;;;;;;;11.85;8.52;;;17.60;99.90;;;;;;5100201;28;20035;-75
2022/08/31 01:38:43;;;;;;;13.88;8.23;;;17.60;99.90;;;;;;5094730;28;20060;-72
2022/08/31 01:41:11;;;;;;;9.52;8.52;;;17.60;99.90;;;;;;5068606;28;20569;-73
2022/08/31 01:43:40;;;;;;;10.43;8.07;;;17.50;99.90;;;;;;5095394;28;20036;-75
2022/08/31 01:46:12;;;;;;;10.18;8.60;;;17.50;99.90;;;;;;5090446;28;20067;-74
2022/08/31 01:48:41;;;;;;;11.20;8.52;;;17.50;99.90;;;;;;5100056;28;20432;-73
2022/08/31 01:51:12;;;;;;;10.95;8.30;;;17.50;99.90;;;;;;5100356;28;20417;-75
2022/08/31 01:53:42;;;;;;;10.93;9.03;;;17.40;99.90;;;;;;5093944;28;20500;-73
2022/08/31 01:56:22;;;;;;;9.77;8.48;;;17.40;99.90;;;;;;5092273;28;20294;-74
2022/08/31 01:58:49;;;;;;;9.57;8.57;;;17.30;99.90;;;;;;5070204;28;20048;-73
2022/08/31 02:01:44;;;;;;;9.70;8.68;;;17.30;99.90;;;;;;5073666;28;20048;-73
2022/08/31 02:04:18;;;;;;;11.48;7.90;;;17.30;99.90;;;;;;5069689;28;20040;-73
2022/08/31 02:06:48;;;;;;;10.65;8.57;;;17.30;99.90;;;;;;5091307;28;20054;-72
2022/08/31 02:09:17;;;;;;;12.93;8.88;;;17.30;99.90;;;;;;5111097;28;20059;-73
2022/08/31 02:11:45;;;;;;;12.15;8.63;;;17.30;99.90;;;;;;5113750;28;20043;-73
2022/08/31 02:14:14;;;;;;;11.32;8.98;;;17.30;99.90;;;;;;5080821;28;20397;-73
2022/08/31 02:16:42;;;;;;;11.18;8.52;;;17.30;99.90;;;;;;5099076;28;20036;-72
2022/08/31 02:19:09;;;;;;;11.75;9.50;;;17.30;99.90;;;;;;5096332;28;20046;-73
2022/08/31 02:21:39;;;;;;;9.32;8.32;;;17.30;99.90;;;;;;5091844;28;20460;-74
2022/08/31 02:24:07;;;;;;;12.10;9.20;;;17.30;99.90;;;;;;5086771;28;21411;-73
2022/08/31 02:26:34;;;;;;;12.52;9.73;;;17.30;99.90;;;;;;5101409;28;20075;-73
2022/08/31 02:29:05;;;;;;;12.30;8.95;;;17.20;99.90;;;;;;5091490;28;20512;-73
2022/08/31 02:31:32;;;;;;;10.68;8.73;;;17.20;99.90;;;;;;5095753;28;20051;-75
2022/08/31 02:34:00;;;;;;;14.60;8.50;;;17.20;99.90;;;;;;5105749;27;20405;-73
2022/08/31 02:36:30;;;;;;;10.25;8.63;;;17.20;99.90;;;;;;5092176;28;20035;-74
2022/08/31 02:39:00;;;;;;;12.15;9.00;;;17.20;99.90;;;;;;5091937;28;20070;-74
2022/08/31 02:41:29;;;;;;;10.85;8.20;;;17.10;99.90;;;;;;5100216;28;20055;-74
2022/08/31 02:43:56;;;;;;;10.30;9.10;;;17.10;99.90;;;;;;5074585;28;20460;-73
2022/08/31 02:46:24;;;;;;;10.32;8.30;;;17.10;99.90;;;;;;5084541;28;20101;-73
2022/08/31 02:49:10;;;;;;;11.52;8.77;;;17.10;99.90;;;;;;5086597;28;20532;-73
2022/08/31 02:51:41;;;;;;;11.38;9.13;;;17.10;99.90;;;;;;5065206;28;20043;-73
2022/08/31 02:54:09;;;;;;;11.73;9.30;;;17.10;99.90;;;;;;5108447;27;20677;-74
2022/08/31 02:56:37;;;;;;;10.60;8.68;;;17.10;99.90;;;;;;5085535;28;20044;-74
2022/08/31 02:59:05;;;;;;;11.88;9.07;;;17.00;99.90;;;;;;5116566;27;20494;-73
2022/08/31 03:01:34;;;;;;;11.15;9.20;;;17.00;99.90;;;;;;5122551;27;20043;-74
2022/08/31 03:04:04;;;;;;;13.40;8.20;;;17.00;99.90;;;;;;5102923;28;20040;-74
2022/08/31 03:06:31;;;;;;;13.25;9.00;;;17.00;99.90;;;;;;5079334;28;20043;-74
2022/08/31 03:09:01;;;;;;;10.40;9.05;;;16.90;99.90;;;;;;5099917;28;20830;-74
2022/08/31 03:11:29;;;;;;;11.70;9.10;;;16.90;99.90;;;;;;5116971;27;20052;-74
2022/08/31 03:13:56;;;;;;;10.27;8.90;;;16.80;99.90;;;;;;5102840;28;20097;-74
2022/08/31 03:16:25;;;;;;;11.38;9.15;;;16.80;99.90;;;;;;5097784;28;20047;-73
2022/08/31 03:18:53;;;;;;;15.32;9.55;;;16.70;99.90;;;;;;5105193;27;20141;-74
2022/08/31 03:21:20;;;;;;;10.27;9.00;;;16.70;99.90;;;;;;5076414;28;20040;-73
2022/08/31 03:23:48;;;;;;;12.32;9.38;;;16.70;99.90;;;;;;5084045;28;20090;-73
2022/08/31 03:26:16;;;;;;;14.63;9.73;;;16.60;99.90;;;;;;5078567;28;20040;-73
2022/08/31 03:28:44;;;;;;;9.93;8.90;;;16.60;99.90;;;;;;5103008;27;20531;-73
2022/08/31 03:31:31;;;;;;;10.50;8.32;;;16.60;99.90;;;;;;5081471;28;20047;-74
2022/08/31 03:33:58;;;;;;;9.82;8.38;;;16.70;99.90;;;;;;5090916;28;20099;-73
2022/08/31 03:36:26;;;;;;;13.20;9.68;;;16.60;99.90;;;;;;5090458;28;20140;-73
2022/08/31 03:38:54;;;;;;;12.10;9.43;;;16.60;99.90;;;;;;5089441;28;20036;-73
2022/08/31 03:41:25;;;;;;;12.65;9.27;;;16.60;99.90;;;;;;5099631;28;20535;-73
2022/08/31 03:43:54;;;;;;;13.00;8.52;;;16.60;99.90;;;;;;5106702;27;20062;-72
2022/08/31 03:46:22;;;;;;;11.60;8.77;;;16.60;99.90;;;;;;5119230;27;20035;-72
2022/08/31 03:48:50;;;;;;;11.32;8.95;;;16.60;99.90;;;;;;5062601;28;20517;-74
2022/08/31 03:51:18;;;;;;;11.02;9.20;;;16.60;99.90;;;;;;5099182;28;20048;-73
2022/08/31 03:53:46;;;;;;;10.25;8.90;;;16.60;99.90;;;;;;5087687;28;20048;-73
2022/08/31 03:56:17;;;;;;;12.13;9.00;;;16.60;99.90;;;;;;5081760;28;20035;-74
2022/08/31 03:58:47;;;;;;;11.40;8.23;;;16.60;99.90;;;;;;5105080;28;20036;-73
2022/08/31 04:01:35;;;;;;;10.23;9.02;;;16.60;99.90;;;;;;5105674;28;20035;-73
2022/08/31 04:04:21;;;;;;;13.23;9.02;;;16.60;99.90;;;;;;5082982;28;20059;-74
2022/08/31 04:06:48;;;;;;;12.93;9.48;;;16.60;99.90;;;;;;5087759;28;20089;-73
2022/08/31 04:09:34;;;;;;;11.65;9.65;;;16.50;99.90;;;;;;5099831;27;20044;-74
2022/08/31 04:12:37;;;;;;;11.70;8.50;;;16.50;99.90;;;;;;5084718;28;20054;-73
2022/08/31 04:15:13;;;;;;;10.18;8.57;;;16.50;99.90;;;;;;5095346;27;20040;-72
2022/08/31 04:17:45;;;;;;;12.02;9.73;;;16.50;99.90;;;;;;5100443;28;20363;-72
2022/08/31 04:20:39;;;;;;;12.85;9.18;;;16.40;99.90;;;;;;5090707;28;20043;-74
2022/08/31 04:23:08;;;;;;;9.32;8.20;;;16.40;99.90;;;;;;5057226;28;20465;-74
2022/08/31 04:25:41;;;;;;;11.75;9.05;;;16.40;99.90;;;;;;5079268;28;20429;-74
2022/08/31 04:28:09;;;;;;;11.60;9.13;;;16.40;99.90;;;;;;5097452;28;20624;-73
2022/08/31 04:30:41;;;;;;;11.90;9.00;;;16.50;99.90;;;;;;5083465;28;20043;-74
2022/08/31 04:33:10;;;;;;;11.23;10.02;;;16.50;99.90;;;;;;5061089;28;20379;-75
2022/08/31 04:35:39;;;;;;;12.23;9.45;;;16.50;99.90;;;;;;5084755;28;20092;-75
2022/08/31 04:38:09;;;;;;;12.48;9.00;;;16.50;99.90;;;;;;5098630;28;20097;-74
2022/08/31 04:40:40;;;;;;;13.80;9.02;;;16.40;99.90;;;;;;5111601;27;20036;-74
2022/08/31 04:43:08;;;;;;;11.05;9.25;;;16.50;99.90;;;;;;5108919;27;20585;-73
2022/08/31 04:45:41;;;;;;;12.85;8.35;;;16.50;99.90;;;;;;5097680;28;20072;-74
2022/08/31 04:48:12;;;;;;;11.30;9.25;;;16.50;99.90;;;;;;5108432;27;20114;-74
2022/08/31 04:50:41;;;;;;;13.65;8.70;;;16.50;99.90;;;;;;5085987;28;20052;-74
2022/08/31 04:53:09;;;;;;;10.25;9.02;;;16.60;99.90;;;;;;5086081;28;20048;-74
2022/08/31 04:55:41;;;;;;;10.38;8.95;;;16.60;99.90;;;;;;5082386;28;20040;-74
2022/08/31 04:58:12;;;;;;;12.30;8.70;;;16.60;99.90;;;;;;5059701;28;20054;-74
2022/08/31 05:00:42;;;;;;;12.93;8.98;;;16.70;99.90;;;;;;5073462;28;20045;-75
2022/08/31 05:03:21;;;;;;;12.00;9.52;;;16.70;99.90;;;;;;5099492;27;20570;-75
2022/08/31 05:05:52;;;;;;;11.68;8.93;;;16.70;99.90;;;;;;5050177;28;20078;-74
2022/08/31 05:08:19;;;;;;;10.43;9.15;;;16.80;99.90;;;;;;5074606;28;20104;-74
2022/08/31 05:10:47;;;;;;;17.45;10.00;;;16.80;99.90;;;;;;5093110;28;20098;-74
2022/08/31 05:13:15;;;;;;;11.57;8.88;;;16.80;99.90;;;;;;5069041;28;20493;-74
2022/08/31 05:15:43;;;;;;;10.68;9.57;;;16.80;99.90;;;;;;5085802;28;20051;-73
2022/08/31 05:18:16;;;;;;;11.60;9.23;;;16.80;99.90;;;;;;5088648;28;20044;-74
2022/08/31 05:20:53;;;;;;;10.48;8.68;;;16.90;99.90;;;;;;5102203;27;20098;-74
2022/08/31 05:23:20;;;;;;;10.20;9.13;;;16.90;99.90;;;;;;5085838;28;20115;-73
2022/08/31 05:25:48;;;;;;;12.75;10.15;;;17.00;99.90;;;;;;5086911;28;20063;-74
2022/08/31 05:28:17;;;;;;;12.30;8.23;;;17.00;99.90;;;;;;5083924;28;20044;-74
2022/08/31 05:30:46;;;;;;;11.63;9.77;;;17.10;99.90;;;;;;5058174;28;20144;-74
2022/08/31 05:33:31;;;;;;;10.50;9.27;;;17.10;99.90;;;;;;5069835;28;20070;-72
2022/08/31 05:36:00;;;;;;;12.15;9.80;;;17.20;99.90;;;;;;5100682;28;20044;-75
2022/08/31 05:38:28;;;;;;;11.07;9.40;;;17.30;99.90;;;;;;5071735;28;20549;-74
2022/08/31 05:40:57;;;;;;;11.55;9.35;;;17.30;99.90;;;;;;5092453;28;20040;-74
2022/08/31 05:43:25;;;;;;;14.43;9.43;;;17.40;99.90;;;;;;5097278;28;20071;-73
2022/08/31 05:45:56;;;;;;;13.45;8.93;;;17.40;99.90;;;;;;5099607;28;20037;-73
2022/08/31 05:48:24;;;;;;;12.50;9.33;;;17.40;99.90;;;;;;5112343;28;20050;-74
2022/08/31 05:51:00;;;;;;;12.43;8.73;;;17.50;99.90;;;;;;5100732;28;20050;-73
2022/08/31 05:53:28;;;;;;;13.75;9.65;;;17.60;99.90;;;;;;5113165;28;20039;-72
2022/08/31 05:56:05;;;;;;;14.00;9.75;;;17.70;99.90;;;;;;5086332;28;20094;-74
2022/08/31 05:58:33;;;;;;;11.80;9.52;;;17.80;99.90;;;;;;5117183;28;20043;-74
2022/08/31 06:01:00;;;;;;;10.40;8.60;;;17.90;99.90;;;;;;5094293;28;20052;-73
2022/08/31 06:03:48;;;;;;;11.95;9.13;;;18.00;99.90;;;;;;5105541;28;20083;-73
2022/08/31 06:06:16;;;;;;;15.52;10.07;;;18.10;99.90;;;;;;5092827;28;20048;-73
2022/08/31 06:08:44;;;;;;;14.32;9.60;;;18.20;99.90;;;;;;5104331;28;20039;-74
2022/08/31 06:11:16;;;;;;;12.15;9.55;;;18.30;99.90;;;;;;5108792;28;20097;-73
2022/08/31 06:13:47;;;;;;;11.93;9.40;;;18.30;99.90;;;;;;5124439;27;20035;-73
2022/08/31 06:16:16;;;;;;;10.80;8.57;;;18.40;99.90;;;;;;5099759;27;20079;-72
2022/08/31 06:18:50;;;;;;;8.93;7.15;;;18.40;99.90;;;;;;5096157;28;20051;-70
2022/08/31 06:21:26;;;;;;;9.15;7.80;;;18.60;99.90;;;;;;5104300;28;20056;-72
2022/08/31 06:23:56;;;;;;;10.65;8.73;;;18.80;99.90;;;;;;5093184;28;20032;-72
2022/08/31 06:26:27;;;;;;;11.52;8.38;;;19.00;99.90;;;;;;5114104;27;20059;-72
2022/08/31 06:28:57;;;;;;;10.98;8.30;;;19.10;99.90;;;;;;5093623;28;20387;-72
2022/08/31 06:31:33;;;;;;;9.13;7.70;;;19.10;99.90;;;;;;5082226;28;20074;-72
2022/08/31 06:34:01;;;;;;;10.40;8.07;;;19.20;99.90;;;;;;5107603;28;20040;-73
2022/08/31 06:36:51;;;;;;;8.63;7.72;;;19.20;99.90;;;;;;5110849;27;20485;-72
2022/08/31 06:39:27;;;;;;;9.88;8.20;;;19.20;99.90;;;;;;5094549;27;20042;-73
2022/08/31 06:42:12;;;;;;;9.85;8.32;;;19.40;99.90;;;;;;5094344;28;20050;-72
2022/08/31 06:44:58;;;;;;;9.32;7.75;;;19.40;99.90;;;;;;5089149;28;20048;-72
2022/08/31 06:47:37;;;;;;;10.68;7.57;;;19.50;99.90;;;;;;5090013;28;20055;-73
2022/08/31 06:50:06;;;;;;;10.75;7.95;;;19.60;99.90;;;;;;5084385;28;20044;-73
2022/08/31 06:52:33;;;;;;;12.77;8.20;;;19.50;99.90;;;;;;5103614;28;20098;-73
2022/08/31 06:55:21;;;;;;;10.27;7.97;;;19.70;99.90;;;;;;5125812;27;20046;-73
2022/08/31 06:58:06;;;;;;;9.52;8.15;;;19.80;99.90;;;;;;5108612;28;20425;-73
2022/08/31 07:00:52;;;;;;;12.30;7.93;;;19.90;99.90;;;;;;5121994;27;20599;-72
2022/08/31 07:03:31;;;;;;;9.65;8.25;;;20.00;99.90;;;;;;5102030;28;20036;-74
2022/08/31 07:06:05;;;;;;;8.98;7.53;;;20.20;99.90;;;;;;5090064;28;20052;-73
2022/08/31 07:08:33;;;;;;;7.90;7.05;;;20.30;99.90;;;;;;5063217;28;20043;-72
2022/08/31 07:11:02;;;;;;;9.05;7.43;;;20.50;99.90;;;;;;5085874;28;20143;-73
2022/08/31 07:13:30;;;;;;;10.50;7.15;;;20.70;99.90;;;;;;5073647;28;20112;-73
2022/08/31 07:16:06;;;;;;;10.20;7.50;;;20.80;99.90;;;;;;5089555;28;20044;-73
2022/08/31 07:18:34;;;;;;;10.57;8.15;;;20.90;99.90;;;;;;5076006;28;20199;-73
2022/08/31 07:21:16;;;;;;;11.10;7.25;;;21.00;99.90;;;;;;5106965;27;20113;-73
2022/08/31 07:23:44;;;;;;;6.95;6.25;;;21.00;99.90;;;;;;5111306;27;20032;-73
2022/08/31 07:26:17;;;;;;;8.85;7.30;;;21.20;99.90;;;;;;5102063;28;20140;-73
2022/08/31 07:28:50;;;;;;;8.90;6.93;;;21.20;99.90;;;;;;5094713;28;20147;-72
2022/08/31 07:31:21;;;;;;;8.68;6.70;;;21.40;99.90;;;;;;5105019;28;20047;-71
2022/08/31 07:33:51;;;;;;;12.85;7.00;;;21.50;99.90;;;;;;5091602;28;20464;-72
2022/08/31 07:36:18;;;;;;;8.90;6.38;;;21.40;99.90;;;;;;5096560;28;20045;-72
2022/08/31 07:44:33;;;;;;;7.60;6.90;;;21.50;99.90;;;;;;5092613;27;20135;-72
2022/08/31 07:47:02;;;;;;;7.40;6.65;;;21.50;99.90;;;;;;5089819;28;20044;-72
2022/08/31 07:49:29;;;;;;;7.65;6.55;;;21.60;99.90;;;;;;5106067;27;20043;-73
2022/08/31 07:52:26;;;;;;;6.97;6.28;;;21.70;99.90;;;;;;5081946;28;20060;-73
2022/08/31 07:55:08;;;;;;;6.88;6.20;;;21.60;99.90;;;;;;5077243;28;20567;-73
2022/08/31 07:57:56;;;;;;;7.72;6.65;;;21.70;99.90;;;;;;5069977;27;20058;-72
2022/08/31 08:00:27;;;;;;;7.47;5.75;;;21.70;99.90;;;;;;5086536;28;20044;-73
2022/08/31 08:02:54;;;;;;;7.50;6.80;;;21.80;99.90;;;;;;5091036;28;20070;-73
2022/08/31 08:05:37;;;;;;;7.43;6.72;;;21.80;99.90;;;;;;5083993;28;20495;-73
2022/08/31 08:08:21;;;;;;;7.22;6.53;;;22.00;99.90;;;;;;5111253;27;20104;-73
2022/08/31 08:11:02;;;;;;;7.93;6.68;;;22.10;99.90;;;;;;5090061;28;20131;-73
2022/08/31 08:13:32;;;;;;;7.95;7.15;;;22.20;99.90;;;;;;5085630;28;20147;-73
2022/08/31 08:16:14;;;;;;;7.38;6.63;;;22.40;99.90;;;;;;5090443;28;20035;-73
2022/08/31 08:19:08;;;;;;;7.60;6.60;;;22.40;99.90;;;;;;5073333;28;20075;-72
2022/08/31 08:21:36;;;;;;;7.97;7.10;;;22.40;99.90;;;;;;5106370;27;20048;-73
2022/08/31 08:24:05;;;;;;;8.05;7.18;;;22.50;99.90;;;;;;5083641;28;20062;-72
2022/08/31 08:26:53;;;;;;;8.13;7.28;;;22.50;99.90;;;;;;5062366;28;20513;-73
2022/08/31 08:29:46;;;;;;;7.88;7.07;;;22.60;99.90;;;;;;5070970;28;20044;-73
2022/08/31 08:32:19;;;;;;;9.85;7.07;;;22.70;99.90;;;;;;5116275;27;20070;-72
2022/08/31 08:34:47;;;;;;;7.68;6.78;;;22.80;99.90;;;;;;5086216;28;20520;-73
2022/08/31 08:37:14;;;;;;;8.25;6.78;;;23.00;99.90;;;;;;5079644;28;20510;-72
2022/08/31 08:39:42;;;;;;;9.70;6.60;;;22.90;99.90;;;;;;5101486;28;20039;-73
2022/08/31 08:42:14;;;;;;;7.32;6.63;;;23.00;99.90;;;;;;5088394;28;20039;-73
2022/08/31 08:44:43;;;;;;;8.68;6.85;;;23.20;99.90;;;;;;5109500;27;20433;-72
2022/08/31 08:47:17;;;;;;;7.40;6.70;;;23.20;99.90;;;;;;5098492;28;20043;-73
2022/08/31 08:50:07;;;;;;;7.47;6.78;;;23.20;99.90;;;;;;5107267;27;20498;-73
2022/08/31 08:52:40;;;;;;;11.40;7.37;;;23.30;99.90;;;;;;5095342;28;20042;-73
2022/08/31 08:55:16;;;;;;;9.00;7.47;;;23.40;99.90;;;;;;5086860;28;20570;-73
2022/08/31 08:57:48;;;;;;;7.53;6.72;;;23.60;99.90;;;;;;5122132;27;20075;-73
2022/08/31 09:00:23;;;;;;;7.65;6.80;;;23.90;99.90;;;;;;5088802;28;20046;-73
2022/08/31 09:03:00;;;;;;;7.15;6.40;;;24.00;99.90;;;;;;5093384;28;20676;-73
2022/08/31 09:06:05;;;;;;;8.50;7.03;;;24.30;99.90;;;;;;5083098;28;20058;-72
2022/08/31 09:09:17;;;;;;;8.00;7.20;;;24.40;99.90;;;;;;5066525;28;20551;-73
2022/08/31 09:12:25;;;;;;;7.70;6.90;;;24.50;99.90;;;;;;5083700;28;20527;-72
2022/08/31 09:15:14;;;;;;;7.82;7.13;;;24.50;99.90;;;;;;5111250;27;20051;-73
2022/08/31 09:18:16;;;;;;;8.18;7.00;;;24.60;99.90;;;;;;5082979;28;20115;-73
2022/08/31 09:21:18;;;;;;;8.10;7.30;;;24.50;99.90;;;;;;5121666;27;20493;-73
2022/08/31 09:24:04;;;;;;;8.60;7.70;;;24.70;99.90;;;;;;5092382;28;20051;-73
2022/08/31 09:27:19;;;;;;;8.15;7.18;;;25.00;99.90;;;;;;5083304;28;20052;-73
2022/08/31 09:29:56;;;;;;;10.15;7.22;;;25.20;99.90;;;;;;5099784;28;20528;-73
2022/08/31 09:32:34;;;;;;;8.70;7.10;;;25.60;99.90;;;;;;5086833;28;20502;-72
2022/08/31 09:35:08;;;;;;;8.02;6.65;;;25.60;99.90;;;;;;5074925;28;20462;-73
2022/08/31 09:37:46;;;;;;;7.45;6.75;;;25.70;99.90;;;;;;5097193;28;20155;-73
2022/08/31 09:40:19;;;;;;;7.72;6.95;;;25.80;99.90;;;;;;5086331;28;20556;-72
2022/08/31 09:43:13;;;;;;;7.57;6.85;;;25.80;99.90;;;;;;5097670;28;20043;-73
2022/08/31 09:46:04;;;;;;;7.93;6.78;;;26.00;99.90;;;;;;5085450;28;20048;-73
2022/08/31 09:48:50;;;;;;;8.05;6.75;;;26.20;99.90;;;;;;5082044;28;20067;-73
2022/08/31 09:51:23;;;;;;;6.72;6.13;;;26.20;99.90;;;;;;5101265;28;20478;-73
2022/08/31 09:56:56;;;;;;;9.63;6.75;;;26.20;99.90;;;;;;5087485;28;20529;-74
2022/08/31 09:59:38;;;;;;;7.78;6.75;;;26.00;99.90;;;;;;5089362;28;20048;-73
2022/08/31 10:02:32;;;;;;;7.40;6.70;;;25.80;99.90;;;;;;5100155;28;20497;-73
2022/08/31 10:05:05;;;;;;;7.25;6.45;;;26.00;99.90;;;;;;5093942;28;20098;-73
2022/08/31 10:07:39;;;;;;;8.93;6.60;;;26.20;99.90;;;;;;5092885;28;20435;-73
2022/08/31 10:10:14;;;;;;;7.38;6.45;;;26.40;99.90;;;;;;5105593;27;20107;-73
2022/08/31 10:13:02;;;;;;;6.60;6.05;;;26.70;99.90;;;;;;5091981;28;20047;-73
2022/08/31 10:15:42;;;;;;;7.68;6.32;;;26.80;99.90;;;;;;5099448;27;20070;-73
2022/08/31 10:18:27;;;;;;;7.63;6.88;;;26.90;99.90;;;;;;5085808;28;20117;-73
2022/08/31 10:20:58;;;;;;;8.60;6.47;;;26.90;99.90;;;;;;5082941;28;20075;-73
2022/08/31 10:23:37;;;;;;;7.10;6.40;;;27.20;99.90;;;;;;5084516;28;20040;-73
2022/08/31 10:26:15;;;;;;;7.25;6.57;;;27.40;99.90;;;;;;5096930;28;20047;-73
2022/08/31 10:28:52;;;;;;;7.70;6.40;;;27.40;99.90;;;;;;5094896;28;20574;-73
2022/08/31 10:31:35;;;;;;;7.00;6.30;;;27.50;99.90;;;;;;5107942;28;20106;-72
2022/08/31 10:37:08;;;;;;;7.38;6.68;;;27.60;99.90;;;;;;5076900;28;20044;-70
2022/08/31 10:39:47;;;;;;;7.75;6.32;;;27.40;99.90;;;;;;5086897;28;20550;-72
2022/08/31 10:42:23;;;;;;;11.02;6.43;;;27.80;99.90;;;;;;5082657;28;20036;-72
2022/08/31 10:44:56;;;;;;;8.25;6.25;;;27.80;99.90;;;;;;5075054;28;20044;-72
2022/08/31 10:47:29;;;;;;;7.03;6.43;;;27.60;99.90;;;;;;5080479;28;20066;-73
2022/08/31 10:50:04;;;;;;;8.02;6.78;;;27.00;99.90;;;;;;5087734;28;20115;-71
2022/08/31 10:52:45;;;;;;;7.60;6.57;;;26.90;99.90;;;;;;5078860;28;20082;-72
2022/08/31 10:55:32;;;;;;;9.90;6.70;;;27.00;99.90;;;;;;5094943;28;20536;-71
2022/08/31 10:58:14;;;;;;;9.60;6.72;;;26.70;99.90;;;;;;5094625;28;20043;-71
2022/08/31 11:01:08;;;;;;;8.98;6.72;;;26.50;99.90;;;;;;5103633;28;20075;-71
2022/08/31 11:03:45;;;;;;;12.00;7.55;;;26.60;99.90;;;;;;5088932;28;20101;-71
2022/08/31 11:06:30;;;;;;;8.05;7.15;;;26.40;99.90;;;;;;5080689;28;20067;-72
2022/08/31 11:09:13;;;;;;;7.68;6.60;;;26.40;99.90;;;;;;5107703;28;20078;-72
2022/08/31 11:12:03;;;;;;;7.32;6.60;;;26.50;99.90;;;;;;5078986;28;20370;-72
2022/08/31 11:14:43;;;;;;;7.53;6.75;;;26.40;99.90;;;;;;5091407;28;20048;-72
2022/08/31 11:17:38;;;;;;;10.05;7.20;;;26.20;99.90;;;;;;5084372;28;20129;-72
2022/08/31 11:20:28;;;;;;;7.40;6.70;;;26.10;99.90;;;;;;5077027;28;20521;-71
2022/08/31 11:23:13;;;;;;;7.88;6.43;;;26.10;99.90;;;;;;5063654;28;20190;-72
2022/08/31 11:26:18;;;;;;;7.53;6.82;;;25.80;99.90;;;;;;5091174;28;20051;-72
2022/08/31 11:28:51;;;;;;;7.95;7.25;;;25.30;99.90;;;;;;5097544;28;20048;-71
2022/08/31 11:31:23;;;;;;;8.63;6.60;;;25.00;99.90;;;;;;5077907;28;20036;-71
2022/08/31 11:34:06;;;;;;;9.90;7.20;;;24.90;99.90;;;;;;5080847;28;20048;-71
2022/08/31 11:36:51;;;;;;;9.55;7.35;;;24.80;99.90;;;;;;5086102;28;20097;-72
2022/08/31 11:39:43;;;;;;;9.55;7.40;;;24.70;99.90;;;;;;5086872;28;20046;-72
2022/08/31 11:42:11;;;;;;;9.32;7.00;;;24.50;99.90;;;;;;5075972;28;20112;-73
2022/08/31 11:44:40;;;;;;;9.93;7.47;;;24.30;99.90;;;;;;5102078;28;20059;-75
2022/08/31 11:47:28;;;;;;;8.30;6.80;;;24.20;99.90;;;;;;5085597;28;20426;-73
2022/08/31 11:50:03;;;;;;;8.10;7.30;;;24.20;99.90;;;;;;5090773;27;20052;-72
2022/08/31 11:52:47;;;;;;;10.55;7.25;;;24.30;99.90;;;;;;5087907;28;20459;-72
2022/08/31 11:55:18;;;;;;;7.95;7.18;;;24.40;99.90;;;;;;5067057;28;20469;-72
2022/08/31 11:58:08;;;;;;;9.80;7.20;;;24.50;99.90;;;;;;5079880;28;20563;-71
2022/08/31 12:01:01;;;;;;;7.88;7.13;;;24.40;99.90;;;;;;5076601;28;20044;-71
2022/08/31 12:03:37;;;;;;;8.27;7.47;;;24.50;99.90;;;;;;5076517;28;20044;-73
2022/08/31 12:06:35;;;;;;;8.32;7.10;;;24.50;99.90;;;;;;5082482;28;20122;-72
2022/08/31 12:09:30;;;;;;;9.00;6.72;;;24.40;99.90;;;;;;5074781;28;20093;-70
2022/08/31 12:12:05;;;;;;;7.03;6.43;;;24.20;99.90;;;;;;5084197;28;20143;-71
2022/08/31 12:15:08;;;;;;;8.15;7.07;;;24.10;99.90;;;;;;5083668;28;20143;-72
2022/08/31 12:17:50;;;;;;;12.55;6.85;;;24.00;99.90;;;;;;5070642;28;20056;-72
2022/08/31 12:20:32;;;;;;;8.77;6.38;;;24.10;99.90;;;;;;5093428;28;20110;-72
2022/08/31 12:23:37;;;;;;;7.60;6.60;;;24.10;99.90;;;;;;5079725;28;20129;-71
2022/08/31 12:26:25;;;;;;;7.72;6.93;;;24.20;99.90;;;;;;5066080;28;20127;-72
2022/08/31 12:29:10;;;;;;;7.93;6.85;;;24.10;99.90;;;;;;5091271;28;20054;-73
2022/08/31 12:31:40;;;;;;;8.70;7.00;;;24.00;99.90;;;;;;5101528;28;20046;-72
2022/08/31 12:34:18;;;;;;;7.40;6.70;;;23.90;99.90;;;;;;5102654;28;20040;-72
2022/08/31 12:36:50;;;;;;;9.57;7.60;;;24.00;99.90;;;;;;5079653;28;20138;-72
2022/08/31 12:39:27;;;;;;;10.38;6.88;;;24.10;99.90;;;;;;5089555;28;20414;-71
2022/08/31 12:42:04;;;;;;;7.47;6.75;;;24.30;99.90;;;;;;5093713;28;20055;-73
2022/08/31 12:44:45;;;;;;;8.32;7.53;;;24.30;99.90;;;;;;5101760;28;20054;-72
2022/08/31 12:47:21;;;;;;;8.65;7.75;;;24.20;99.90;;;;;;5101852;28;20505;-72
2022/08/31 12:50:31;;;;;;;10.15;8.00;;;24.20;99.90;;;;;;5108400;27;20132;-71
2022/08/31 12:53:01;;;;;;;8.07;7.38;;;24.40;99.90;;;;;;5058070;28;20045;-72
2022/08/31 12:55:45;;;;;;;10.07;7.38;;;24.50;99.90;;;;;;5044255;28;20837;-72
2022/08/31 12:58:18;;;;;;;9.60;7.53;;;24.50;99.90;;;;;;5062142;28;20924;-72
2022/08/31 13:00:46;;;;;;;8.35;7.35;;;24.50;99.90;;;;;;5042015;28;20481;-72
2022/08/31 13:03:25;;;;;;;9.48;7.75;;;24.50;99.90;;;;;;5047255;28;20128;-72
2022/08/31 13:06:12;;;;;;;8.55;7.65;;;24.60;99.90;;;;;;5045120;28;20112;-73
2022/08/31 13:08:48;;;;;;;8.90;7.40;;;24.80;99.90;;;;;;5063567;28;20507;-72
2022/08/31 13:11:23;;;;;;;8.75;6.90;;;24.90;99.90;;;;;;5033262;28;20214;-73
2022/08/31 13:14:12;;;;;;;10.88;7.28;;;25.20;99.90;;;;;;5044880;28;20370;-72
2022/08/31 13:16:49;;;;;;;10.35;7.63;;;25.30;99.90;;;;;;5044226;28;20048;-72
2022/08/31 13:19:26;;;;;;;10.07;7.68;;;25.20;99.90;;;;;;5033361;28;20072;-72
2022/08/31 13:21:55;;;;;;;7.72;6.93;;;25.00;99.90;;;;;;5047138;28;20533;-74
2022/08/31 13:24:44;;;;;;;8.25;7.45;;;25.00;99.90;;;;;;5047845;28;20044;-73
2022/08/31 13:27:25;;;;;;;8.13;7.30;;;25.00;99.90;;;;;;5070264;28;20527;-72
2022/08/31 13:29:55;;;;;;;9.40;7.85;;;24.90;99.90;;;;;;5082583;28;20518;-72
2022/08/31 13:32:29;;;;;;;9.07;8.15;;;24.80;99.90;;;;;;5056070;28;20127;-72
2022/08/31 13:35:07;;;;;;;9.27;8.05;;;24.70;99.90;;;;;;5067606;28;20134;-72
2022/08/31 13:37:40;;;;;;;8.93;7.85;;;24.50;99.90;;;;;;5070295;28;20054;-71
2022/08/31 13:40:15;;;;;;;7.85;7.15;;;24.40;99.90;;;;;;5074263;28;20352;-71